sensor_id;sensor_type;location;lat;lon;timestamp;pressure;altitude;pressure_sealevel;temperature;humidity
76108;BME280;64834;52.516;10.528;2023-05-10T00:01:22;100225.97;;;13.12;53.25
76108;BME280;64834;52.516;10.528;2023-05-10T00:03:47;100219.78;;;13.10;53.79
76108;BME280;64834;52.516;10.528;2023-05-10T00:06:12;100220.53;;;13.07;53.93
76108;BME280;64834;52.516;10.528;2023-05-10T00:08:38;100210.78;;;13.03;53.86
76108;BME280;64834;52.516;10.528;2023-05-10T00:11:03;100203.56;;;12.98;54.26
76108;BME280;64834;52.516;10.528;2023-05-10T00:13:29;100210.50;;;12.95;54.40
76108;BME280;64834;52.516;10.528;2023-05-10T00:15:54;100222.00;;;12.99;54.25
76108;BME280;64834;52.516;10.528;2023-05-10T00:18:20;100219.19;;;12.94;54.65
76108;BME280;64834;52.516;10.528;2023-05-10T00:20:45;100204.13;;;12.89;54.84
76108;BME280;64834;52.516;10.528;2023-05-10T00:23:11;100197.94;;;12.88;54.77
76108;BME280;64834;52.516;10.528;2023-05-10T00:25:37;100198.69;;;12.84;54.99
76108;BME280;64834;52.516;10.528;2023-05-10T00:28:02;100199.34;;;12.79;55.13
76108;BME280;64834;52.516;10.528;2023-05-10T00:30:28;100198.50;;;12.80;55.24
76108;BME280;64834;52.516;10.528;2023-05-10T00:32:53;100193.25;;;12.80;55.51
76108;BME280;64834;52.516;10.528;2023-05-10T00:35:18;100200.22;;;12.79;55.29
76108;BME280;64834;52.516;10.528;2023-05-10T00:37:44;100194.78;;;12.75;55.56
76108;BME280;64834;52.516;10.528;2023-05-10T00:40:10;100207.03;;;12.74;55.64
76108;BME280;64834;52.516;10.528;2023-05-10T00:42:36;100185.97;;;12.73;55.56
76108;BME280;64834;52.516;10.528;2023-05-10T00:45:01;100198.22;;;12.72;55.90
76108;BME280;64834;52.516;10.528;2023-05-10T00:47:27;100196.00;;;12.60;56.00
76108;BME280;64834;52.516;10.528;2023-05-10T00:49:53;100193.50;;;12.63;55.95
76108;BME280;64834;52.516;10.528;2023-05-10T00:52:19;100186.44;;;12.62;55.98
76108;BME280;64834;52.516;10.528;2023-05-10T00:54:44;100202.13;;;12.61;56.42
76108;BME280;64834;52.516;10.528;2023-05-10T00:57:10;100195.16;;;12.61;56.12
76108;BME280;64834;52.516;10.528;2023-05-10T00:59:36;100188.72;;;12.53;56.67
76108;BME280;64834;52.516;10.528;2023-05-10T01:02:02;100189.38;;;12.48;56.85
76108;BME280;64834;52.516;10.528;2023-05-10T01:04:27;100189.38;;;12.48;56.64
76108;BME280;64834;52.516;10.528;2023-05-10T01:06:53;100189.38;;;12.48;56.84
76108;BME280;64834;52.516;10.528;2023-05-10T01:09:22;100187.13;;;12.36;57.11
76108;BME280;64834;52.516;10.528;2023-05-10T01:11:48;100202.53;;;12.49;57.04
76108;BME280;64834;52.516;10.528;2023-05-10T01:14:15;100184.56;;;12.37;57.22
76108;BME280;64834;52.516;10.528;2023-05-10T01:16:52;100179.97;;;12.32;57.43
76108;BME280;64834;52.516;10.528;2023-05-10T01:19:31;100186.94;;;12.31;57.65
76108;BME280;64834;52.516;10.528;2023-05-10T01:25:22;100195.72;;;12.32;57.58
76108;BME280;64834;52.516;10.528;2023-05-10T01:33:47;100201.63;;;12.26;58.00
76108;BME280;64834;52.516;10.528;2023-05-10T01:39:01;100195.41;;;12.24;58.02
76108;BME280;64834;52.516;10.528;2023-05-10T01:42:06;100191.69;;;12.19;58.40
76108;BME280;64834;52.516;10.528;2023-05-10T01:44:42;100190.94;;;12.22;58.28
76108;BME280;64834;52.516;10.528;2023-05-10T01:49:54;100189.56;;;12.09;58.72
76108;BME280;64834;52.516;10.528;2023-05-10T01:52:25;100183.25;;;12.05;58.71
76108;BME280;64834;52.516;10.528;2023-05-10T01:55:11;100191.22;;;12.07;58.96
76108;BME280;64834;52.516;10.528;2023-05-10T01:57:40;100186.47;;;11.98;59.14
76108;BME280;64834;52.516;10.528;2023-05-10T02:00:08;100192.91;;;12.06;58.90
76108;BME280;64834;52.516;10.528;2023-05-10T02:02:40;100188.41;;;12.02;59.08
76108;BME280;64834;52.516;10.528;2023-05-10T02:05:08;100192.50;;;11.96;59.80
76108;BME280;64834;52.516;10.528;2023-05-10T02:07:35;100192.75;;;12.02;59.38
76108;BME280;64834;52.516;10.528;2023-05-10T02:10:02;100191.59;;;11.95;59.71
76108;BME280;64834;52.516;10.528;2023-05-10T02:12:30;100189.72;;;11.93;59.56
76108;BME280;64834;52.516;10.528;2023-05-10T02:14:57;100187.75;;;11.87;60.24
76108;BME280;64834;52.516;10.528;2023-05-10T02:17:24;100186.84;;;11.86;60.27
76108;BME280;64834;52.516;10.528;2023-05-10T02:19:51;100183.13;;;11.81;60.41
76108;BME280;64834;52.516;10.528;2023-05-10T02:22:18;100180.50;;;11.81;60.63
76108;BME280;64834;52.516;10.528;2023-05-10T02:24:45;100182.03;;;11.76;60.74
76108;BME280;64834;52.516;10.528;2023-05-10T02:27:12;100185.56;;;11.77;60.94
76108;BME280;64834;52.516;10.528;2023-05-10T02:29:39;100191.53;;;11.74;60.70
76108;BME280;64834;52.516;10.528;2023-05-10T02:32:05;100186.19;;;11.71;61.10
76108;BME280;64834;52.516;10.528;2023-05-10T02:34:31;100188.03;;;11.74;61.05
76108;BME280;64834;52.516;10.528;2023-05-10T02:36:58;100178.31;;;11.71;60.99
76108;BME280;64834;52.516;10.528;2023-05-10T02:39:26;100179.91;;;11.68;61.20
76108;BME280;64834;52.516;10.528;2023-05-10T02:41:53;100175.63;;;11.70;61.26
76108;BME280;64834;52.516;10.528;2023-05-10T02:44:22;100177.38;;;11.69;61.14
76108;BME280;64834;52.516;10.528;2023-05-10T02:46:48;100179.16;;;11.70;61.43
76108;BME280;64834;52.516;10.528;2023-05-10T02:49:13;100175.63;;;11.70;61.45
76108;BME280;64834;52.516;10.528;2023-05-10T02:51:47;100169.31;;;11.65;61.48
76108;BME280;64834;52.516;10.528;2023-05-10T02:54:18;100171.09;;;11.66;61.38
76108;BME280;64834;52.516;10.528;2023-05-10T02:56:49;100169.50;;;11.69;61.16
76108;BME280;64834;52.516;10.528;2023-05-10T02:59:16;100166.75;;;11.66;61.62
76108;BME280;64834;52.516;10.528;2023-05-10T03:01:41;100166.34;;;11.57;61.69
76108;BME280;64834;52.516;10.528;2023-05-10T03:04:07;100158.75;;;11.63;61.56
76108;BME280;64834;52.516;10.528;2023-05-10T03:06:32;100165.78;;;11.64;61.90
76108;BME280;64834;52.516;10.528;2023-05-10T03:08:58;100166.69;;;11.65;61.60
76108;BME280;64834;52.516;10.528;2023-05-10T03:11:45;100165.78;;;11.64;61.89
76108;BME280;64834;52.516;10.528;2023-05-10T03:16:52;100172.66;;;11.62;61.73
76108;BME280;64834;52.516;10.528;2023-05-10T03:19:30;100176.31;;;11.66;61.94
76108;BME280;64834;52.516;10.528;2023-05-10T03:21:59;100165.69;;;11.62;61.80
76108;BME280;64834;52.516;10.528;2023-05-10T03:24:27;100171.88;;;11.63;62.06
76108;BME280;64834;52.516;10.528;2023-05-10T03:26:55;100169.31;;;11.65;62.08
76108;BME280;64834;52.516;10.528;2023-05-10T03:29:25;100164.91;;;11.64;61.97
76108;BME280;64834;52.516;10.528;2023-05-10T03:31:51;100174.53;;;11.65;61.90
76108;BME280;64834;52.516;10.528;2023-05-10T03:34:16;100167.25;;;11.57;62.26
76108;BME280;64834;52.516;10.528;2023-05-10T03:36:42;100167.44;;;11.62;62.28
76108;BME280;64834;52.516;10.528;2023-05-10T03:39:07;100171.66;;;11.58;62.14
76108;BME280;64834;52.516;10.528;2023-05-10T03:41:33;100168.16;;;11.58;62.26
76108;BME280;64834;52.516;10.528;2023-05-10T03:43:58;100167.16;;;11.56;62.15
76108;BME280;64834;52.516;10.528;2023-05-10T03:46:23;100171.50;;;11.55;62.39
76108;BME280;64834;52.516;10.528;2023-05-10T03:48:48;100172.41;;;11.56;62.66
76108;BME280;64834;52.516;10.528;2023-05-10T03:51:14;100165.25;;;11.52;62.70
76108;BME280;64834;52.516;10.528;2023-05-10T03:53:39;100170.63;;;11.55;62.64
76108;BME280;64834;52.516;10.528;2023-05-10T03:56:04;100160.19;;;11.56;62.67
76108;BME280;64834;52.516;10.528;2023-05-10T03:58:30;100167.25;;;11.57;62.37
76108;BME280;64834;52.516;10.528;2023-05-10T04:00:55;100172.66;;;11.62;62.61
76108;BME280;64834;52.516;10.528;2023-05-10T04:03:21;100172.25;;;11.72;62.25
76108;BME280;64834;52.516;10.528;2023-05-10T04:05:46;100160.88;;;11.72;62.25
76108;BME280;64834;52.516;10.528;2023-05-10T04:08:11;100166.78;;;11.68;62.03
76108;BME280;64834;52.516;10.528;2023-05-10T04:10:37;100166.78;;;11.68;62.34
76108;BME280;64834;52.516;10.528;2023-05-10T04:13:02;100171.16;;;11.67;62.62
76108;BME280;64834;52.516;10.528;2023-05-10T04:15:27;100167.78;;;11.70;62.57
76108;BME280;64834;52.516;10.528;2023-05-10T04:17:53;100164.16;;;11.68;62.91
76108;BME280;64834;52.516;10.528;2023-05-10T04:20:18;100164.06;;;11.65;62.72
76108;BME280;64834;52.516;10.528;2023-05-10T04:22:44;100159.72;;;11.65;63.17
76108;BME280;64834;52.516;10.528;2023-05-10T04:25:09;100157.41;;;11.73;63.03
76108;BME280;64834;52.516;10.528;2023-05-10T04:27:34;100158.34;;;11.75;63.00
76108;BME280;64834;52.516;10.528;2023-05-10T04:30:00;100158.34;;;11.75;62.74
76108;BME280;64834;52.516;10.528;2023-05-10T04:32:25;100160.16;;;11.76;62.43
76108;BME280;64834;52.516;10.528;2023-05-10T04:34:50;100157.41;;;11.73;62.90
76108;BME280;64834;52.516;10.528;2023-05-10T04:37:17;100167.50;;;11.83;63.09
76108;BME280;64834;52.516;10.528;2023-05-10T04:39:42;100164.34;;;11.92;62.66
76108;BME280;64834;52.516;10.528;2023-05-10T04:42:08;100163.44;;;11.91;62.34
76108;BME280;64834;52.516;10.528;2023-05-10T04:44:33;100165.38;;;11.95;62.43
76108;BME280;64834;52.516;10.528;2023-05-10T04:46:58;100162.94;;;12.00;62.29
76108;BME280;64834;52.516;10.528;2023-05-10T04:49:24;100163.06;;;12.03;62.49
76108;BME280;64834;52.516;10.528;2023-05-10T04:51:49;100160.25;;;11.98;62.71
76108;BME280;64834;52.516;10.528;2023-05-10T04:54:14;100170.75;;;11.98;62.94
76108;BME280;64834;52.516;10.528;2023-05-10T04:56:40;100175.97;;;11.98;63.19
76108;BME280;64834;52.516;10.528;2023-05-10T04:59:06;100177.19;;;12.06;63.07
76108;BME280;64834;52.516;10.528;2023-05-10T05:01:31;100170.34;;;12.10;63.00
76108;BME280;64834;52.516;10.528;2023-05-10T05:03:57;100174.97;;;12.15;62.52
76108;BME280;64834;52.516;10.528;2023-05-10T05:06:22;100180.41;;;12.20;62.61
76108;BME280;64834;52.516;10.528;2023-05-10T05:08:49;100178.06;;;12.28;63.14
76108;BME280;64834;52.516;10.528;2023-05-10T05:11:15;100172.84;;;12.28;62.44
76108;BME280;64834;52.516;10.528;2023-05-10T05:13:40;100178.66;;;12.21;62.87
76108;BME280;64834;52.516;10.528;2023-05-10T05:16:05;100187.53;;;12.24;63.54
76108;BME280;64834;52.516;10.528;2023-05-10T05:18:31;100185.69;;;12.22;62.69
76108;BME280;64834;52.516;10.528;2023-05-10T05:20:56;100187.72;;;12.29;63.58
76108;BME280;64834;52.516;10.528;2023-05-10T05:23:21;100185.22;;;12.32;63.35
76108;BME280;64834;52.516;10.528;2023-05-10T05:25:50;100192.34;;;12.34;62.95
76108;BME280;64834;52.516;10.528;2023-05-10T05:28:16;100196.50;;;12.29;63.44
76108;BME280;64834;52.516;10.528;2023-05-10T05:30:42;100199.38;;;12.35;63.53
76108;BME280;64834;52.516;10.528;2023-05-10T05:33:07;100196.81;;;12.37;63.39
76108;BME280;64834;52.516;10.528;2023-05-10T05:35:32;100196.94;;;12.40;63.24
76108;BME280;64834;52.516;10.528;2023-05-10T05:37:58;100211.00;;;12.42;63.35
76108;BME280;64834;52.516;10.528;2023-05-10T05:40:23;100205.69;;;12.40;63.16
76108;BME280;64834;52.516;10.528;2023-05-10T05:42:48;100205.66;;;12.39;63.36
76108;BME280;64834;52.516;10.528;2023-05-10T05:45:14;100212.72;;;12.41;63.45
76108;BME280;64834;52.516;10.528;2023-05-10T05:47:40;100214.53;;;12.42;63.39
76108;BME280;64834;52.516;10.528;2023-05-10T05:50:05;100208.53;;;12.45;63.91
76108;BME280;64834;52.516;10.528;2023-05-10T05:52:31;100209.28;;;12.42;63.84
76108;BME280;64834;52.516;10.528;2023-05-10T05:54:56;100208.53;;;12.45;64.30
76108;BME280;64834;52.516;10.528;2023-05-10T05:57:21;100206.53;;;12.39;64.21
76108;BME280;64834;52.516;10.528;2023-05-10T05:59:47;100206.69;;;12.44;64.39
76108;BME280;64834;52.516;10.528;2023-05-10T06:02:13;100213.09;;;12.51;63.66
76108;BME280;64834;52.516;10.528;2023-05-10T06:04:38;100219.97;;;12.47;64.02
76108;BME280;64834;52.516;10.528;2023-05-10T06:07:04;100215.81;;;12.52;64.55
76108;BME280;64834;52.516;10.528;2023-05-10T06:09:29;100215.81;;;12.52;64.55
76108;BME280;64834;52.516;10.528;2023-05-10T06:11:54;100219.50;;;12.57;64.06
76108;BME280;64834;52.516;10.528;2023-05-10T06:14:20;100223.78;;;12.55;65.00
76108;BME280;64834;52.516;10.528;2023-05-10T06:16:45;100219.75;;;12.63;64.99
76108;BME280;64834;52.516;10.528;2023-05-10T06:19:11;100222.72;;;12.73;64.08
76108;BME280;64834;52.516;10.528;2023-05-10T06:21:36;100227.03;;;12.71;64.86
76108;BME280;64834;52.516;10.528;2023-05-10T06:24:02;100226.13;;;12.70;64.58
76108;BME280;64834;52.516;10.528;2023-05-10T06:26:27;100223.16;;;12.83;64.65
76108;BME280;64834;52.516;10.528;2023-05-10T06:28:53;100221.56;;;12.88;64.40
76108;BME280;64834;52.516;10.528;2023-05-10T06:31:18;100225.50;;;13.00;65.20
76108;BME280;64834;52.516;10.528;2023-05-10T06:33:46;100235.66;;;13.13;64.10
76108;BME280;64834;52.516;10.528;2023-05-10T06:36:12;100230.03;;;13.26;64.56
76108;BME280;64834;52.516;10.528;2023-05-10T06:38:38;100228.59;;;13.12;64.35
76108;BME280;64834;52.516;10.528;2023-05-10T06:41:04;100225.97;;;13.12;63.51
76108;BME280;64834;52.516;10.528;2023-05-10T06:43:29;100232.34;;;13.18;64.07
76108;BME280;64834;52.516;10.528;2023-05-10T06:45:54;100233.66;;;13.28;63.89
76108;BME280;64834;52.516;10.528;2023-05-10T06:48:20;100237.81;;;13.23;63.30
76108;BME280;64834;52.516;10.528;2023-05-10T06:50:45;100235.53;;;13.32;63.31
76108;BME280;64834;52.516;10.528;2023-05-10T06:53:10;100243.78;;;13.41;63.50
76108;BME280;64834;52.516;10.528;2023-05-10T06:55:38;100238.78;;;13.49;62.61
76108;BME280;64834;52.516;10.528;2023-05-10T06:58:03;100245.44;;;13.63;62.84
76108;BME280;64834;52.516;10.528;2023-05-10T07:00:28;100246.09;;;13.82;62.25
76108;BME280;64834;52.516;10.528;2023-05-10T07:02:54;100238.81;;;13.74;61.56
76108;BME280;64834;52.516;10.528;2023-05-10T07:05:20;100248.41;;;13.72;61.86
76108;BME280;64834;52.516;10.528;2023-05-10T07:07:45;100251.22;;;13.77;61.67
76108;BME280;64834;52.516;10.528;2023-05-10T07:10:10;100252.31;;;13.84;62.27
76108;BME280;64834;52.516;10.528;2023-05-10T07:12:36;100260.34;;;13.88;62.29
76108;BME280;64834;52.516;10.528;2023-05-10T07:15:01;100263.94;;;13.90;61.56
76108;BME280;64834;52.516;10.528;2023-05-10T07:17:26;100266.47;;;14.13;60.79
76108;BME280;64834;52.516;10.528;2023-05-10T07:19:52;100272.53;;;14.10;61.17
76108;BME280;64834;52.516;10.528;2023-05-10T07:22:17;100265.41;;;14.08;60.89
76108;BME280;64834;52.516;10.528;2023-05-10T07:24:43;100269.91;;;14.10;61.01
76108;BME280;64834;52.516;10.528;2023-05-10T07:27:08;100268.38;;;14.17;61.03
76108;BME280;64834;52.516;10.528;2023-05-10T07:29:34;100267.00;;;14.28;61.21
76108;BME280;64834;52.516;10.528;2023-05-10T07:32:00;100277.41;;;14.25;61.21
76108;BME280;64834;52.516;10.528;2023-05-10T07:34:26;100271.22;;;14.23;61.49
76108;BME280;64834;52.516;10.528;2023-05-10T07:36:51;100278.25;;;14.24;61.70
76108;BME280;64834;52.516;10.528;2023-05-10T07:39:17;100285.97;;;14.19;63.64
76108;BME280;64834;52.516;10.528;2023-05-10T07:41:42;100289.69;;;14.24;63.87
76108;BME280;64834;52.516;10.528;2023-05-10T07:44:07;100290.22;;;14.14;65.56
76108;BME280;64834;52.516;10.528;2023-05-10T07:46:33;100288.31;;;14.10;65.34
76108;BME280;64834;52.516;10.528;2023-05-10T07:48:58;100294.28;;;14.06;67.64
76108;BME280;64834;52.516;10.528;2023-05-10T07:51:23;100292.22;;;14.21;69.05
76108;BME280;64834;52.516;10.528;2023-05-10T07:53:49;100293.66;;;14.13;69.57
76108;BME280;64834;52.516;10.528;2023-05-10T07:56:24;100291.25;;;14.19;69.91
76108;BME280;64834;52.516;10.528;2023-05-10T07:58:55;100291.94;;;14.14;68.68
76108;BME280;64834;52.516;10.528;2023-05-10T08:01:21;100293.00;;;13.95;71.42
76108;BME280;64834;52.516;10.528;2023-05-10T08:03:46;100297.69;;;14.02;72.49
76108;BME280;64834;52.516;10.528;2023-05-10T08:06:11;100304.66;;;14.01;73.60
76108;BME280;64834;52.516;10.528;2023-05-10T08:08:37;100300.88;;;13.93;73.97
76108;BME280;64834;52.516;10.528;2023-05-10T08:11:03;100306.94;;;13.91;75.10
76108;BME280;64834;52.516;10.528;2023-05-10T08:13:29;100305.59;;;13.78;75.99
76108;BME280;64834;52.516;10.528;2023-05-10T08:15:54;100321.38;;;13.78;76.42
76108;BME280;64834;52.516;10.528;2023-05-10T08:18:19;100318.47;;;13.70;76.79
76108;BME280;64834;52.516;10.528;2023-05-10T08:20:45;100319.34;;;13.47;77.67
76108;BME280;64834;52.516;10.528;2023-05-10T08:23:12;100326.09;;;13.40;78.03
76108;BME280;64834;52.516;10.528;2023-05-10T08:25:38;100323.03;;;13.52;78.38
76108;BME280;64834;52.516;10.528;2023-05-10T08:28:03;100317.13;;;13.58;79.22
76108;BME280;64834;52.516;10.528;2023-05-10T08:30:28;100323.50;;;13.42;79.08
76108;BME280;64834;52.516;10.528;2023-05-10T08:32:54;100319.44;;;13.50;81.41
76108;BME280;64834;52.516;10.528;2023-05-10T08:35:19;100318.69;;;13.76;80.89
76108;BME280;64834;52.516;10.528;2023-05-10T08:37:44;100326.72;;;13.81;81.06
76108;BME280;64834;52.516;10.528;2023-05-10T08:40:11;100330.47;;;13.88;81.28
76108;BME280;64834;52.516;10.528;2023-05-10T08:42:39;100331.03;;;13.79;80.17
76108;BME280;64834;52.516;10.528;2023-05-10T08:45:07;100336.47;;;13.84;81.19
76108;BME280;64834;52.516;10.528;2023-05-10T08:47:33;100340.38;;;13.71;81.84
76108;BME280;64834;52.516;10.528;2023-05-10T08:50:00;100346.22;;;13.64;82.55
76108;BME280;64834;52.516;10.528;2023-05-10T08:52:30;100355.28;;;13.48;83.44
76108;BME280;64834;52.516;10.528;2023-05-10T08:54:56;100356.19;;;13.48;83.73
76108;BME280;64834;52.516;10.528;2023-05-10T08:57:21;100361.84;;;13.37;84.64
76108;BME280;64834;52.516;10.528;2023-05-10T08:59:47;100365.13;;;13.31;85.60
76108;BME280;64834;52.516;10.528;2023-05-10T09:02:13;100372.50;;;13.40;85.43
76108;BME280;64834;52.516;10.528;2023-05-10T09:04:39;100366.81;;;13.29;86.75
76108;BME280;64834;52.516;10.528;2023-05-10T09:07:04;100376.50;;;13.30;87.21
76108;BME280;64834;52.516;10.528;2023-05-10T09:09:30;100375.53;;;13.28;87.52
76108;BME280;64834;52.516;10.528;2023-05-10T09:11:56;100387.06;;;13.32;87.29
76108;BME280;64834;52.516;10.528;2023-05-10T09:14:23;100397.47;;;13.29;88.04
76108;BME280;64834;52.516;10.528;2023-05-10T09:16:49;100388.75;;;13.30;88.90
76108;BME280;64834;52.516;10.528;2023-05-10T09:19:14;100404.50;;;13.30;89.21
76108;BME280;64834;52.516;10.528;2023-05-10T09:21:40;100394.88;;;13.30;89.75
76108;BME280;64834;52.516;10.528;2023-05-10T09:24:06;100406.09;;;13.26;90.04
76108;BME280;64834;52.516;10.528;2023-05-10T09:26:33;100407.66;;;13.21;91.03
76108;BME280;64834;52.516;10.528;2023-05-10T09:28:59;100397.97;;;13.20;91.41
76108;BME280;64834;52.516;10.528;2023-05-10T09:31:43;100407.78;;;13.24;92.20
76108;BME280;64834;52.516;10.528;2023-05-10T09:34:09;100407.03;;;13.27;92.69
76108;BME280;64834;52.516;10.528;2023-05-10T09:36:34;100409.81;;;13.31;93.27
76108;BME280;64834;52.516;10.528;2023-05-10T09:38:59;100415.22;;;13.34;93.05
76108;BME280;64834;52.516;10.528;2023-05-10T09:41:25;100414.38;;;13.35;93.83
76108;BME280;64834;52.516;10.528;2023-05-10T09:43:55;100412.97;;;13.45;94.25
76108;BME280;64834;52.516;10.528;2023-05-10T09:46:21;100416.44;;;13.44;93.63
76108;BME280;64834;52.516;10.528;2023-05-10T09:48:47;100410.97;;;13.60;94.00
76108;BME280;64834;52.516;10.528;2023-05-10T09:51:23;100424.22;;;13.41;93.73
76108;BME280;64834;52.516;10.528;2023-05-10T09:53:48;100418.47;;;13.51;94.49
76108;BME280;64834;52.516;10.528;2023-05-10T09:56:33;100429.78;;;13.48;93.40
76108;BME280;64834;52.516;10.528;2023-05-10T09:59:03;100429.19;;;13.33;94.42
76108;BME280;64834;52.516;10.528;2023-05-10T10:01:29;100416.28;;;13.39;94.43
76108;BME280;64834;52.516;10.528;2023-05-10T10:03:54;100429.34;;;13.38;94.11
76108;BME280;64834;52.516;10.528;2023-05-10T10:06:19;100431.72;;;13.32;94.44
76108;BME280;64834;52.516;10.528;2023-05-10T10:08:45;100437.47;;;13.21;95.00
76108;BME280;64834;52.516;10.528;2023-05-10T10:11:11;100437.19;;;13.15;95.86
76108;BME280;64834;52.516;10.528;2023-05-10T10:13:36;100432.03;;;13.18;96.00
76108;BME280;64834;52.516;10.528;2023-05-10T10:16:02;100437.63;;;13.26;96.12
76108;BME280;64834;52.516;10.528;2023-05-10T10:18:28;100441.66;;;13.18;95.84
76108;BME280;64834;52.516;10.528;2023-05-10T10:20:55;100442.78;;;13.23;97.05
76108;BME280;64834;52.516;10.528;2023-05-10T10:23:21;100443.72;;;13.25;97.14
76108;BME280;64834;52.516;10.528;2023-05-10T10:25:47;100453.66;;;13.32;97.22
76108;BME280;64834;52.516;10.528;2023-05-10T10:28:32;100449.31;;;13.33;97.12
76108;BME280;64834;52.516;10.528;2023-05-10T10:31:03;100454.06;;;13.20;97.69
76108;BME280;64834;52.516;10.528;2023-05-10T10:33:51;100450.44;;;13.18;98.42
76108;BME280;64834;52.516;10.528;2023-05-10T10:36:20;100450.44;;;13.18;99.33
76108;BME280;64834;52.516;10.528;2023-05-10T10:49:53;100462.81;;;13.87;96.49
76108;BME280;64834;52.516;10.528;2023-05-10T10:52:30;100467.72;;;14.00;95.73
76108;BME280;64834;52.516;10.528;2023-05-10T10:55:13;100465.97;;;14.00;96.03
76108;BME280;64834;52.516;10.528;2023-05-10T10:57:50;100470.06;;;14.15;95.33
76108;BME280;64834;52.516;10.528;2023-05-10T11:00:21;100466.84;;;14.23;95.46
76108;BME280;64834;52.516;10.528;2023-05-10T11:02:50;100464.69;;;14.36;95.25
76108;BME280;64834;52.516;10.528;2023-05-10T11:08:12;100462.00;;;14.58;93.87
76108;BME280;64834;52.516;10.528;2023-05-10T11:10:39;100462.50;;;14.72;95.36
76108;BME280;64834;52.516;10.528;2023-05-10T11:13:09;100464.94;;;14.91;93.61
76108;BME280;64834;52.516;10.528;2023-05-10T11:15:39;100467.59;;;15.18;93.00
76108;BME280;64834;52.516;10.528;2023-05-10T11:18:25;100462.75;;;15.05;90.95
76108;BME280;64834;52.516;10.528;2023-05-10T11:20:52;100471.25;;;14.71;89.93
76108;BME280;64834;52.516;10.528;2023-05-10T11:23:20;100475.09;;;14.80;91.44
76108;BME280;64834;52.516;10.528;2023-05-10T11:25:47;100480.94;;;14.72;90.30
76108;BME280;64834;52.516;10.528;2023-05-10T11:28:13;100482.13;;;14.56;92.40
76108;BME280;64834;52.516;10.528;2023-05-10T11:30:40;100486.31;;;14.27;92.98
76108;BME280;64834;52.516;10.528;2023-05-10T11:33:06;100489.28;;;14.14;95.36
76108;BME280;64834;52.516;10.528;2023-05-10T11:35:37;100498.41;;;13.99;96.38
76108;BME280;64834;52.516;10.528;2023-05-10T11:38:06;100501.16;;;13.80;97.26
76108;BME280;64834;52.516;10.528;2023-05-10T11:40:31;100500.38;;;13.60;98.38
76108;BME280;64834;52.516;10.528;2023-05-10T11:42:56;100507.53;;;13.64;99.83
76108;BME280;64834;52.516;10.528;2023-05-10T11:45:24;100515.06;;;13.34;98.31
76108;BME280;64834;52.516;10.528;2023-05-10T11:47:49;100509.03;;;13.37;99.71
76108;BME280;64834;52.516;10.528;2023-05-10T11:50:15;100514.53;;;13.43;99.81
76108;BME280;64834;52.516;10.528;2023-05-10T11:52:40;100514.78;;;13.49;99.56
76108;BME280;64834;52.516;10.528;2023-05-10T11:55:06;100519.00;;;13.66;100.00
76108;BME280;64834;52.516;10.528;2023-05-10T11:57:31;100525.47;;;13.74;99.81
76108;BME280;64834;52.516;10.528;2023-05-10T11:59:57;100523.94;;;14.02;99.25
76108;BME280;64834;52.516;10.528;2023-05-10T12:02:23;100522.34;;;14.07;97.13
76108;BME280;64834;52.516;10.528;2023-05-10T12:04:49;100518.78;;;14.27;97.12
76108;BME280;64834;52.516;10.528;2023-05-10T12:07:14;100523.13;;;14.49;96.14
76108;BME280;64834;52.516;10.528;2023-05-10T12:09:43;100525.59;;;14.69;95.67
76108;BME280;64834;52.516;10.528;2023-05-10T12:12:10;100523.31;;;14.78;95.18
76108;BME280;64834;52.516;10.528;2023-05-10T12:14:40;100525.09;;;14.79;93.56
76108;BME280;64834;52.516;10.528;2023-05-10T12:17:05;100522.50;;;14.80;93.24
76108;BME280;64834;52.516;10.528;2023-05-10T12:19:37;100526.06;;;14.82;92.15
76108;BME280;64834;52.516;10.528;2023-05-10T12:22:05;100528.97;;;14.65;92.77
76108;BME280;64834;52.516;10.528;2023-05-10T12:24:30;100538.50;;;14.61;93.71
76108;BME280;64834;52.516;10.528;2023-05-10T12:26:55;100519.66;;;14.74;94.40
76108;BME280;64834;52.516;10.528;2023-05-10T12:29:21;100534.09;;;14.86;93.89
76108;BME280;64834;52.516;10.528;2023-05-10T12:34:33;100538.81;;;15.20;91.51
76108;BME280;64834;52.516;10.528;2023-05-10T12:36:59;100538.38;;;15.33;91.10
76108;BME280;64834;52.516;10.528;2023-05-10T12:39:25;100541.50;;;15.47;89.35
76108;BME280;64834;52.516;10.528;2023-05-10T12:41:51;100542.22;;;15.68;89.83
76108;BME280;64834;52.516;10.528;2023-05-10T12:44:17;100547.69;;;15.74;89.00
76108;BME280;64834;52.516;10.528;2023-05-10T12:46:43;100545.91;;;15.73;87.27
76108;BME280;64834;52.516;10.528;2023-05-10T12:49:08;100545.88;;;15.72;85.79
76108;BME280;64834;52.516;10.528;2023-05-10T12:51:33;100544.38;;;15.80;87.04
76108;BME280;64834;52.516;10.528;2023-05-10T12:53:59;100544.41;;;15.81;83.80
76108;BME280;64834;52.516;10.528;2023-05-10T12:56:24;100541.22;;;15.91;83.65
76108;BME280;64834;52.516;10.528;2023-05-10T12:58:50;100548.13;;;15.88;84.99
76108;BME280;64834;52.516;10.528;2023-05-10T13:01:16;100550.63;;;16.10;85.20
76108;BME280;64834;52.516;10.528;2023-05-10T13:03:41;100552.94;;;16.28;82.77
76108;BME280;64834;52.516;10.528;2023-05-10T13:06:08;100547.72;;;16.31;82.09
76108;BME280;64834;52.516;10.528;2023-05-10T13:08:33;100545.25;;;16.37;82.03
76108;BME280;64834;52.516;10.528;2023-05-10T13:11:00;100549.00;;;16.74;81.99
76108;BME280;64834;52.516;10.528;2023-05-10T13:13:25;100544.41;;;16.68;82.51